Maran Pythia — SVAQ5 — position and weather

sailwx.info

Track history (hours):
 
Tides and Currents Weather Stations Pressure Air Temp Water Temp Dewpoint Dewpoint Depression Visibility Wind Speed Wind Dir Waves Ship Positions

Maran Pythia

Last reported at 2017-Apr-20 14:45 UTC. Time now 2017-Apr-30 16:43 UTC.
Position N 35°57' W 005°44'.
Warning: this ship's position is 10 days out of date.

Length 275 m; draft 16.4 m.

Type: Ship. MMSI: 240893000.

Date/timePositionNaut miles runAvg speedWind from/ knotsBaromVisibWave heightAir tempDewpointWater temp
2017-Apr-20 14:45N 35°57' W 005°44'1013.6
2017-Apr-20 14:00N 35°59' W 005°31'713.5
2017-Apr-20 13:30N 36°01' W 005°23'713.2
2017-Apr-20 13:00N 36°04' W 005°16'4 8.9
2017-Apr-20 12:30N 36°07' W 005°12'1 1.4
2017-Apr-20 12:00N 36°06' W 005°12'3 6.3
2017-Apr-20 11:30N 36°04' W 005°10'3 6.7
2017-Apr-20 10:59N 36°04' W 005°05'4 8.8
2017-Apr-20 10:29N 36°04' W 005°00'  
2017-Apr-17 17:18N 36°43' E 013°02'411.9
2017-Apr-17 17:00N 36°42' E 013°06'612.2
2017-Apr-17 16:30N 36°40' E 013°13'612.2
2017-Apr-17 16:00N 36°38' E 013°21'1111.8
2017-Apr-17 15:03N 36°35' E 013°34'111.4
2017-Apr-17 14:58N 36°35' E 013°35'511.5
2017-Apr-17 14:30N 36°33' E 013°42'1411.6
2017-Apr-17 13:20N 36°29' E 013°58'411.7
2017-Apr-17 13:00N 36°28' E 014°02'612.0
2017-Apr-17 12:30N 36°26' E 014°09'612.2
2017-Apr-17 11:59N 36°24' E 014°17'612.1
2017-Apr-17 11:30N 36°24' E 014°24'612.2
2017-Apr-17 11:00N 36°23' E 014°32'612.3
2017-Apr-17 10:30N 36°22' E 014°39'712.4
2017-Apr-17 09:58N 36°21' E 014°47'  
Track history (hours):
 
Tides and Currents Weather Stations Pressure Air Temp Water Temp Dewpoint Dewpoint Depression Visibility Wind Speed Wind Dir Waves Ship Positions

Maran Pythia

Last reported at 2017-Apr-20 14:45 UTC. Time now 2017-Apr-30 16:43 UTC.
Position N 35°57' W 005°44'.
Warning: this ship's position is 10 days out of date.

Length 275 m; draft 16.4 m.

Type: Ship. MMSI: 240893000.

Date/timePositionNaut miles runAvg speedWind from/ knotsBaromVisibWave heightAir tempDewpointWater temp
2017-Apr-20 14:45N 35°57' W 005°44'1013.6
2017-Apr-20 14:00N 35°59' W 005°31'713.5
2017-Apr-20 13:30N 36°01' W 005°23'713.2
2017-Apr-20 13:00N 36°04' W 005°16'4 8.9
2017-Apr-20 12:30N 36°07' W 005°12'1 1.4
2017-Apr-20 12:00N 36°06' W 005°12'3 6.3
2017-Apr-20 11:30N 36°04' W 005°10'3 6.7
2017-Apr-20 10:59N 36°04' W 005°05'4 8.8
2017-Apr-20 10:29N 36°04' W 005°00'  
2017-Apr-17 17:18N 36°43' E 013°02'411.9
2017-Apr-17 17:00N 36°42' E 013°06'612.2
2017-Apr-17 16:30N 36°40' E 013°13'612.2
2017-Apr-17 16:00N 36°38' E 013°21'1111.8
2017-Apr-17 15:03N 36°35' E 013°34'111.4
2017-Apr-17 14:58N 36°35' E 013°35'511.5
2017-Apr-17 14:30N 36°33' E 013°42'1411.6
2017-Apr-17 13:20N 36°29' E 013°58'411.7
2017-Apr-17 13:00N 36°28' E 014°02'612.0
2017-Apr-17 12:30N 36°26' E 014°09'612.2
2017-Apr-17 11:59N 36°24' E 014°17'612.1
2017-Apr-17 11:30N 36°24' E 014°24'612.2
2017-Apr-17 11:00N 36°23' E 014°32'612.3
2017-Apr-17 10:30N 36°22' E 014°39'712.4
2017-Apr-17 09:58N 36°21' E 014°47'  

Dump ship's entire track history